Time;durP1;ratioP1;P1;durP2;ratioP2;P2;SDS_P1;SDS_P2;PMS_P1;PMS_P2;Temp;Humidity;BMP_temperature;BMP_pressure;BME280_temperature;BME280_humidity;BME280_pressure;Samples;Min_cycle;Max_cycle;Signal;HPM_P1;HPM_P2
2021/09/17 00:00:36;;;;;;;8.13;4.40;;;;;;;18.23;65.35;100956.45;1697734;83;26472;-60
2021/09/17 00:03:06;;;;;;;9.20;5.17;;;;;;;18.23;65.18;100949.12;1708312;83;26093;-60
2021/09/17 00:05:33;;;;;;;12.90;4.80;;;;;;;18.27;65.02;100950.95;1702530;83;25744;-60
2021/09/17 00:08:00;;;;;;;11.43;4.78;;;;;;;18.27;64.96;100942.78;1680697;85;25807;-60
2021/09/17 00:10:27;;;;;;;10.70;4.53;;;;;;;18.24;64.79;100941.28;1684276;83;25860;-60
2021/09/17 00:12:54;;;;;;;11.45;4.58;;;;;;;18.21;64.87;100944.36;1691384;83;25939;-60
2021/09/17 00:15:22;;;;;;;13.28;5.28;;;;;;;18.14;64.89;100936.59;1673885;83;27530;-60
2021/09/17 00:17:49;;;;;;;11.43;4.67;;;;;;;18.11;65.59;100937.81;1665890;84;25698;-60
2021/09/17 00:20:17;;;;;;;14.43;4.60;;;;;;;18.09;65.29;100933.06;1681964;83;25654;-60
2021/09/17 00:22:45;;;;;;;20.82;4.33;;;;;;;18.08;65.50;100929.17;1711411;83;26584;-60
2021/09/17 00:25:12;;;;;;;15.53;4.47;;;;;;;18.08;65.48;100926.44;1708638;82;25764;-60
2021/09/17 00:27:39;;;;;;;15.35;4.22;;;;;;;18.06;65.59;100921.69;1685062;83;27475;-60
2021/09/17 00:30:08;;;;;;;12.13;4.80;;;;;;;18.03;65.79;100916.10;1691402;83;25977;-60
2021/09/17 00:32:35;;;;;;;15.20;4.05;;;;;;;18.04;66.36;100910.12;1716192;83;25797;-60
2021/09/17 00:35:04;;;;;;;9.88;4.10;;;;;;;18.02;66.12;100906.77;1685344;83;25948;-60
2021/09/17 00:37:30;;;;;;;10.53;4.12;;;;;;;18.01;66.57;100911.34;1683588;83;25812;-60
2021/09/17 00:39:58;;;;;;;10.23;4.03;;;;;;;18.00;66.09;100898.77;1696499;83;27487;-60
2021/09/17 00:42:25;;;;;;;18.62;5.20;;;;;;;18.05;66.28;100899.08;1704701;83;25870;-60
2021/09/17 00:44:51;;;;;;;21.42;4.17;;;;;;;18.10;66.33;100887.11;1714104;83;25633;-60
2021/09/17 00:47:18;;;;;;;9.65;4.30;;;;;;;18.14;66.20;100886.23;1707146;83;27871;-60
2021/09/17 00:49:45;;;;;;;12.18;4.53;;;;;;;18.13;66.14;100888.12;1687002;83;25513;-60
2021/09/17 00:52:12;;;;;;;15.20;3.90;;;;;;;18.12;66.06;100885.56;1684695;83;27475;-60
2021/09/17 00:54:39;;;;;;;16.97;4.42;;;;;;;18.11;66.17;100883.37;1686064;83;25913;-60
2021/09/17 00:57:06;;;;;;;12.43;4.70;;;;;;;18.05;66.06;100889.55;1661426;84;25477;-60
2021/09/17 00:59:33;;;;;;;14.68;4.12;;;;;;;18.04;66.28;100885.13;1686245;83;25818;-60
2021/09/17 01:02:00;;;;;;;12.85;4.80;;;;;;;18.07;66.27;100882.02;1694630;83;25755;-60
2021/09/17 01:04:27;;;;;;;6.60;4.22;;;;;;;18.06;66.33;100879.50;1724032;83;27482;-60
2021/09/17 01:06:55;;;;;;;11.95;4.30;;;;;;;18.08;66.97;100872.00;1688081;83;25797;-60
2021/09/17 01:09:22;;;;;;;14.23;4.33;;;;;;;18.01;66.57;100880.05;1715102;83;25683;-60
2021/09/17 01:11:49;;;;;;;8.75;4.42;;;;;;;17.92;66.53;100879.25;1694644;83;25785;-60
2021/09/17 01:14:17;;;;;;;15.50;4.90;;;;;;;17.91;66.56;100863.94;1700961;83;25471;-60
2021/09/17 01:16:44;;;;;;;15.55;4.67;;;;;;;17.83;66.55;100870.81;1721331;83;27067;-60
2021/09/17 01:19:12;;;;;;;10.90;5.08;;;;;;;17.77;66.61;100872.38;1704881;83;25844;-60
2021/09/17 01:21:39;;;;;;;14.87;4.90;;;;;;;17.71;66.77;100872.25;1709038;82;25708;-59
2021/09/17 01:24:06;;;;;;;14.90;4.37;;;;;;;17.69;66.94;100869.72;1728399;83;25755;-60
2021/09/17 01:26:33;;;;;;;11.15;4.35;;;;;;;17.58;68.34;100863.33;1686945;83;25854;-60
2021/09/17 01:29:00;;;;;;;15.90;4.53;;;;;;;17.47;67.62;100872.23;1696999;83;27468;-60
2021/09/17 01:31:27;;;;;;;9.08;4.62;;;;;;;17.45;68.24;100866.64;1686434;83;25797;-60
2021/09/17 01:33:54;;;;;;;10.38;4.35;;;;;;;17.44;68.07;100854.07;1686079;83;25680;-60
2021/09/17 01:36:21;;;;;;;13.15;4.22;;;;;;;17.43;68.18;100853.73;1720661;83;25806;-60
2021/09/17 01:38:48;;;;;;;10.03;4.55;;;;;;;17.46;68.04;100855.58;1716187;83;25891;-60
2021/09/17 01:41:15;;;;;;;10.85;4.42;;;;;;;17.52;68.06;100856.23;1720022;83;28227;-60
2021/09/17 01:43:41;;;;;;;15.53;4.42;;;;;;;17.55;68.08;100859.60;1724043;83;26140;-60
2021/09/17 01:46:09;;;;;;;12.55;4.70;;;;;;;17.59;68.76;100856.34;1718413;83;25868;-60
2021/09/17 01:48:35;;;;;;;14.20;4.33;;;;;;;17.63;68.35;100855.46;1701428;83;25777;-60
2021/09/17 01:51:02;;;;;;;13.48;4.42;;;;;;;17.67;68.12;100850.84;1707833;83;26409;-60
2021/09/17 01:53:29;;;;;;;10.95;4.97;;;;;;;17.75;68.11;100842.31;1707130;83;27433;-59
2021/09/17 01:55:56;;;;;;;10.58;4.25;;;;;;;17.83;68.31;100847.69;1724248;83;25654;-59
2021/09/17 01:58:23;;;;;;;11.50;4.33;;;;;;;17.87;67.91;100829.11;1713678;82;25495;-60
2021/09/17 02:00:50;;;;;;;13.22;4.60;;;;;;;17.92;67.90;100828.90;1699006;82;25809;-60
2021/09/17 02:03:17;;;;;;;8.13;4.65;;;;;;;17.98;67.71;100820.52;1687790;83;25749;-60
2021/09/17 02:05:45;;;;;;;8.83;4.70;;;;;;;18.05;67.60;100821.50;1680362;83;27483;-60
2021/09/17 02:08:11;;;;;;;12.82;4.70;;;;;;;18.10;67.45;100815.50;1702565;83;25821;-60
2021/09/17 02:10:38;;;;;;;19.48;4.30;;;;;;;18.14;67.47;100821.75;1678238;83;25889;-60
2021/09/17 02:13:05;;;;;;;9.75;4.95;;;;;;;18.18;67.38;100823.59;1677417;84;25813;-59
2021/09/17 02:15:32;;;;;;;13.50;4.67;;;;;;;18.22;67.26;100825.42;1694979;82;25449;-60
2021/09/17 02:18:00;;;;;;;21.02;4.83;;;;;;;18.27;67.12;100821.61;1677354;84;28175;-59
2021/09/17 02:20:27;;;;;;;8.48;4.10;;;;;;;18.25;67.03;100823.67;1711587;83;25701;-59
2021/09/17 02:22:55;;;;;;;15.38;4.80;;;;;;;18.23;66.74;100823.03;1720136;82;25791;-60
2021/09/17 02:25:22;;;;;;;16.45;4.65;;;;;;;18.23;66.72;100820.31;1689408;82;25831;-59
2021/09/17 02:27:49;;;;;;;18.12;5.40;;;;;;;18.23;66.61;100817.59;1664269;84;25763;-59
2021/09/17 02:30:16;;;;;;;10.78;4.78;;;;;;;18.21;66.56;100810.11;1676538;84;29597;-59
2021/09/17 02:32:43;;;;;;;16.02;5.08;;;;;;;18.17;66.32;100804.70;1677418;84;26481;-59
2021/09/17 02:35:11;;;;;;;14.78;5.20;;;;;;;18.15;66.32;100808.45;1680417;83;25780;-60
2021/09/17 02:37:39;;;;;;;14.23;5.83;;;;;;;18.13;66.55;100806.45;1681502;83;25811;-59
2021/09/17 02:40:10;;;;;;;14.23;4.92;;;;;;;18.11;66.45;100805.78;1678812;83;25730;-59
2021/09/17 02:42:38;;;;;;;8.55;5.12;;;;;;;18.06;66.68;100796.47;1693499;84;27449;-59
2021/09/17 02:45:08;;;;;;;10.48;5.00;;;;;;;18.00;67.27;100793.97;1697906;83;25762;-59
2021/09/17 02:47:35;;;;;;;8.73;4.58;;;;;;;17.97;67.55;100792.47;1682982;83;25770;-60
2021/09/17 02:50:04;;;;;;;10.85;4.80;;;;;;;17.98;67.86;100786.50;1712882;83;25830;-60
2021/09/17 02:52:32;;;;;;;13.58;4.25;;;;;;;18.00;67.68;100783.08;1674584;83;25840;-60
2021/09/17 02:54:58;;;;;;;17.42;5.12;;;;;;;17.98;67.90;100788.72;1649999;85;27484;-60
2021/09/17 02:57:25;;;;;;;13.05;5.05;;;;;;;18.00;67.82;100791.25;1677085;83;25730;-60
2021/09/17 02:59:54;;;;;;;9.55;4.58;;;;;;;18.04;67.80;100793.95;1674416;83;25761;-60
2021/09/17 03:02:21;;;;;;;14.73;4.30;;;;;;;18.07;67.89;100779.11;1678964;85;25837;-60
2021/09/17 03:04:48;;;;;;;18.73;5.47;;;;;;;18.11;67.80;100780.42;1690994;83;25476;-60
2021/09/17 03:07:15;;;;;;;14.18;4.45;;;;;;;18.13;67.75;100777.86;1718465;83;27543;-60
2021/09/17 03:09:41;;;;;;;14.38;4.75;;;;;;;18.17;67.69;100787.00;1683993;83;25441;-60
2021/09/17 03:12:08;;;;;;;9.68;4.15;;;;;;;18.19;67.92;100785.80;1723761;83;25474;-60
2021/09/17 03:14:35;;;;;;;9.15;4.90;;;;;;;18.24;67.87;100778.44;1725836;83;25849;-60
2021/09/17 03:17:02;;;;;;;7.85;4.45;;;;;;;18.25;68.23;100765.13;1700886;82;25841;-60
2021/09/17 03:19:29;;;;;;;7.40;3.98;;;;;;;18.18;68.01;100765.05;1691015;83;27479;-60
2021/09/17 03:21:59;;;;;;;16.17;4.80;;;;;;;18.19;67.80;100769.97;1697266;83;25729;-60
2021/09/17 03:24:25;;;;;;;20.15;5.25;;;;;;;18.20;67.74;100759.41;1727113;82;25747;-60
2021/09/17 03:26:51;;;;;;;15.43;4.35;;;;;;;18.22;67.52;100758.72;1689154;84;26498;-60
2021/09/17 03:29:19;;;;;;;11.03;4.83;;;;;;;18.22;67.72;100755.46;1697957;83;26638;-60
2021/09/17 03:31:47;;;;;;;10.93;5.35;;;;;;;18.20;67.74;100760.77;1717415;83;28162;-60
2021/09/17 03:34:14;;;;;;;14.78;4.50;;;;;;;18.21;67.50;100766.55;1728760;83;25799;-60
2021/09/17 03:36:45;;;;;;;23.98;6.22;;;;;;;18.21;67.90;100765.19;1690684;83;25725;-60
2021/09/17 03:39:13;;;;;;;16.57;5.03;;;;;;;18.15;67.37;100758.61;1699998;83;25822;-60
2021/09/17 03:41:44;;;;;;;8.60;5.00;;;;;;;18.14;67.33;100765.95;1703104;82;25889;-60
2021/09/17 03:44:13;;;;;;;12.82;5.15;;;;;;;18.12;67.36;100762.56;1717271;83;27541;-60
2021/09/17 03:46:40;;;;;;;21.07;5.50;;;;;;;18.14;67.33;100770.03;1715834;82;25704;-60
2021/09/17 03:49:08;;;;;;;18.98;5.95;;;;;;;18.17;67.25;100772.02;1694598;83;26380;-60
2021/09/17 03:51:35;;;;;;;15.10;5.17;;;;;;;18.19;67.35;100771.33;1686990;83;25865;-60
2021/09/17 03:54:02;;;;;;;14.85;5.10;;;;;;;18.14;67.14;100766.45;1688416;83;25935;-60
2021/09/17 03:56:29;;;;;;;20.62;5.50;;;;;;;18.11;67.10;100761.36;1694647;83;28265;-60
2021/09/17 03:58:56;;;;;;;15.70;5.45;;;;;;;18.10;67.10;100763.25;1714102;83;26413;-60
2021/09/17 04:01:23;;;;;;;16.42;5.47;;;;;;;18.05;67.17;100769.78;1706460;81;25771;-60
2021/09/17 04:03:50;;;;;;;15.63;5.33;;;;;;;17.98;67.40;100772.89;1703858;84;25786;-60
2021/09/17 04:06:17;;;;;;;14.73;5.75;;;;;;;17.93;67.71;100787.55;1696364;82;26555;-60
2021/09/17 04:08:44;;;;;;;18.02;4.70;;;;;;;17.94;67.87;100791.97;1690845;82;27584;-60
2021/09/17 04:11:11;;;;;;;15.72;4.97;;;;;;;17.96;68.40;100784.50;1688742;82;25816;-60
2021/09/17 04:13:38;;;;;;;16.85;5.45;;;;;;;17.96;68.17;100787.22;1688403;82;25696;-60
2021/09/17 04:16:05;;;;;;;11.75;5.08;;;;;;;17.96;69.12;100785.86;1690375;82;26491;-60
2021/09/17 04:18:31;;;;;;;15.88;4.30;;;;;;;17.98;68.56;100787.36;1685465;82;25860;-60
2021/09/17 04:20:59;;;;;;;15.38;5.30;;;;;;;18.00;68.62;100789.89;1682337;83;28157;-60
2021/09/17 04:23:25;;;;;;;15.78;5.25;;;;;;;18.05;68.59;100779.81;1681816;85;25836;-60
2021/09/17 04:25:52;;;;;;;17.02;5.50;;;;;;;18.10;68.50;100785.03;1683960;83;25800;-60
2021/09/17 04:28:20;;;;;;;26.55;5.62;;;;;;;18.16;68.29;100787.53;1687804;83;26443;-60
2021/09/17 04:30:47;;;;;;;43.42;5.58;;;;;;;18.14;68.29;100775.47;1691501;82;25718;-64
2021/09/17 04:33:17;;;;;;;25.17;5.05;;;;;;;18.18;68.62;100775.94;1694732;84;27953;-60
2021/09/17 04:35:44;;;;;;;17.65;5.35;;;;;;;18.19;68.53;100763.16;1707627;82;25793;-59
2021/09/17 04:38:15;;;;;;;17.67;5.00;;;;;;;18.21;68.44;100761.94;1699079;82;25843;-59
2021/09/17 04:40:43;;;;;;;18.75;5.45;;;;;;;18.18;68.06;100765.55;1694204;84;26516;-61
2021/09/17 04:43:10;;;;;;;26.97;5.28;;;;;;;18.11;68.21;100779.92;1694736;82;25850;-59
2021/09/17 04:45:38;;;;;;;136.05;64.12;;;;;;;18.09;68.41;100787.41;1684915;83;28189;-60
2021/09/17 04:48:12;;;;;;;28.15;8.05;;;;;;;18.11;68.83;100772.25;1685788;83;26782;-60
2021/09/17 04:50:40;;;;;;;27.50;7.05;;;;;;;18.14;68.55;100763.72;1697847;83;25927;-60
2021/09/17 04:53:08;;;;;;;30.12;5.62;;;;;;;18.15;68.49;100752.63;1714178;82;25765;-60
2021/09/17 04:55:36;;;;;;;23.57;6.97;;;;;;;18.20;68.53;100747.16;1692133;82;26459;-61
2021/09/17 04:58:05;;;;;;;22.25;6.15;;;;;;;18.23;68.31;100751.70;1683826;82;28245;-63
2021/09/17 05:00:34;;;;;;;21.20;6.33;;;;;;;18.28;68.20;100741.62;1736645;82;25819;-61
2021/09/17 05:03:01;;;;;;;24.32;5.97;;;;;;;18.31;68.21;100738.53;1714534;82;25830;-61
2021/09/17 05:05:28;;;;;;;28.85;5.90;;;;;;;18.33;68.11;100736.97;1691222;83;25809;-61
2021/09/17 05:07:56;;;;;;;10.32;4.95;;;;;;;18.37;68.14;100736.94;1704217;83;25709;-62
2021/09/17 05:10:24;;;;;;;22.05;5.87;;;;;;;18.41;68.06;100738.23;1712880;83;28299;-61
2021/09/17 05:12:51;;;;;;;27.82;5.83;;;;;;;18.43;68.23;100742.98;1689500;84;26004;-61
2021/09/17 05:15:18;;;;;;;19.20;5.97;;;;;;;18.50;68.28;100743.91;1706510;83;25794;-61
2021/09/17 05:17:46;;;;;;;16.85;5.67;;;;;;;18.55;68.18;100742.84;1715969;83;26569;-61
2021/09/17 05:20:14;;;;;;;17.05;5.80;;;;;;;18.66;67.99;100756.48;1713861;83;26525;-61
2021/09/17 05:22:41;;;;;;;28.07;6.30;;;;;;;18.71;67.72;100751.30;1713703;83;27500;-61
2021/09/17 05:25:10;;;;;;;18.23;5.92;;;;;;;18.75;67.36;100745.80;1718675;82;26487;-60
2021/09/17 05:27:38;;;;;;;16.67;5.30;;;;;;;18.76;67.17;100743.91;1710062;83;25780;-61
2021/09/17 05:30:08;;;;;;;18.37;6.37;;;;;;;18.77;66.94;100745.11;1716105;83;26401;-61
2021/09/17 05:32:35;;;;;;;16.62;5.60;;;;;;;18.76;67.09;100743.41;1691301;82;25852;-62
2021/09/17 05:35:04;;;;;;;19.95;6.08;;;;;;;18.60;66.89;100706.32;1690777;83;28200;-61
2021/09/17 05:37:32;;;;;;;17.90;5.65;;;;;;;18.81;66.92;100736.03;1695575;82;25975;-61
2021/09/17 05:39:59;;;;;;;21.12;6.78;;;;;;;18.87;66.79;100731.16;1709255;83;25753;-60
2021/09/17 05:42:26;;;;;;;21.12;7.45;;;;;;;18.92;66.67;100732.81;1695242;83;26464;-61
2021/09/17 05:44:53;;;;;;;14.80;5.90;;;;;;;18.98;66.62;100726.28;1684872;84;25943;-62
2021/09/17 05:47:20;;;;;;;13.70;5.70;;;;;;;19.04;66.61;100728.22;1697861;83;28121;-60
2021/09/17 05:49:47;;;;;;;28.30;6.28;;;;;;;19.14;66.64;100732.84;1701949;83;25782;-60
2021/09/17 05:52:14;;;;;;;16.37;5.10;;;;;;;19.23;66.64;100733.05;1703502;83;26492;-61
2021/09/17 05:54:44;;;;;;;39.10;5.70;;;;;;;19.33;66.68;100741.42;1683793;83;26620;-62
2021/09/17 05:57:15;;;;;;;14.63;5.62;;;;;;;19.37;66.37;100735.88;1678208;83;25824;-59
2021/09/17 05:59:43;;;;;;;17.17;6.28;;;;;;;19.48;66.26;100738.63;1678122;84;28763;-60
2021/09/17 06:02:10;;;;;;;15.72;5.60;;;;;;;19.61;66.14;100737.90;1684682;83;25743;-60
2021/09/17 06:04:36;;;;;;;20.23;5.62;;;;;;;19.69;65.86;100735.86;1700154;83;25781;-60
2021/09/17 06:07:04;;;;;;;24.75;5.33;;;;;;;19.76;65.50;100735.09;1683390;85;26602;-60
2021/09/17 06:09:34;;;;;;;23.98;5.80;;;;;;;19.82;65.24;100729.66;1678334;84;26232;-60
2021/09/17 06:12:00;;;;;;;15.58;6.40;;;;;;;19.89;64.76;100725.65;1683463;85;27503;-61
2021/09/17 06:14:27;;;;;;;22.25;5.80;;;;;;;19.96;64.58;100720.25;1683483;84;25833;-61
2021/09/17 06:16:54;;;;;;;17.27;5.85;;;;;;;20.08;64.35;100720.52;1683040;85;25856;-61
2021/09/17 06:19:21;;;;;;;16.07;5.62;;;;;;;20.21;64.01;100723.35;1651890;84;25816;-60
2021/09/17 06:21:48;;;;;;;18.52;5.40;;;;;;;20.28;63.34;100722.00;1661332;85;25809;-61
2021/09/17 06:24:15;;;;;;;21.27;5.25;;;;;;;20.40;63.29;100723.63;1674552;84;27473;-61
2021/09/17 06:26:43;;;;;;;17.00;6.03;;;;;;;20.47;62.97;100721.27;1660963;84;26239;-61
2021/09/17 06:29:10;;;;;;;11.48;5.50;;;;;;;20.55;62.87;100724.36;1657777;85;25834;-61
2021/09/17 06:31:37;;;;;;;14.23;5.47;;;;;;;20.62;62.70;100717.53;1663112;84;26446;-61
2021/09/17 06:34:05;;;;;;;19.90;5.92;;;;;;;20.72;62.35;100709.80;1643302;84;25842;-60
2021/09/17 06:36:32;;;;;;;18.50;5.67;;;;;;;20.80;62.27;100717.01;1678212;85;26819;-60
2021/09/17 06:39:03;;;;;;;22.85;6.22;;;;;;;20.93;62.08;100712.10;1697687;83;26485;-60
2021/09/17 06:41:30;;;;;;;16.85;5.20;;;;;;;21.02;61.64;100711.41;1678438;84;25761;-61
2021/09/17 06:43:58;;;;;;;15.58;5.90;;;;;;;21.05;61.06;100709.59;1685310;83;25831;-60
2021/09/17 06:46:25;;;;;;;16.27;5.58;;;;;;;21.04;61.34;100706.55;1691364;84;26192;-61
2021/09/17 06:48:53;;;;;;;22.10;5.60;;;;;;;21.02;61.35;100710.03;1703496;83;27504;-61
2021/09/17 06:51:20;;;;;;;17.10;4.97;;;;;;;20.97;61.25;100715.27;1703632;84;25727;-61
2021/09/17 06:53:47;;;;;;;11.35;5.25;;;;;;;20.93;61.26;100714.30;1682745;83;25797;-61
2021/09/17 06:56:16;;;;;;;7.95;4.92;;;;;;;20.92;61.08;100712.64;1678233;85;26420;-62
2021/09/17 06:58:48;;;;;;;16.05;5.45;;;;;;;20.90;61.48;100705.16;1678334;83;25755;-63
2021/09/17 07:01:18;;;;;;;13.85;5.47;;;;;;;20.83;61.56;100697.47;1685168;83;26612;-62
2021/09/17 07:03:44;;;;;;;14.47;4.95;;;;;;;20.83;61.63;100693.38;1714982;82;25823;-59
2021/09/17 07:06:14;;;;;;;12.68;4.95;;;;;;;20.84;61.53;100697.80;1714374;82;25775;-62
2021/09/17 07:08:40;;;;;;;22.20;6.20;;;;;;;20.84;61.58;100693.70;1716983;82;25886;-61
2021/09/17 07:11:07;;;;;;;15.70;5.80;;;;;;;20.88;61.88;100697.69;1700273;83;25735;-61
2021/09/17 07:13:34;;;;;;;21.70;5.65;;;;;;;20.95;61.78;100690.87;1684195;83;27508;-60
2021/09/17 07:16:01;;;;;;;16.35;5.35;;;;;;;20.91;61.30;100691.81;1691137;83;27228;-60
2021/09/17 07:18:28;;;;;;;17.85;5.80;;;;;;;20.89;61.40;100686.20;1709461;83;25842;-60
2021/09/17 07:20:57;;;;;;;15.50;6.53;;;;;;;20.99;61.55;100689.39;1699694;83;25814;-60
2021/09/17 07:23:24;;;;;;;17.15;6.45;;;;;;;21.05;61.46;100689.95;1718734;83;26896;-60
2021/09/17 07:25:51;;;;;;;21.50;6.50;;;;;;;21.07;61.46;100693.30;1692814;82;27491;-59
2021/09/17 07:28:18;;;;;;;18.62;5.90;;;;;;;21.10;61.60;100696.16;1698988;83;25838;-61
2021/09/17 07:30:45;;;;;;;14.90;6.15;;;;;;;21.14;61.56;100692.48;1707017;83;25784;-60
2021/09/17 07:33:13;;;;;;;19.12;6.80;;;;;;;21.16;61.61;100695.86;1707899;82;25834;-60
2021/09/17 07:35:41;;;;;;;13.18;5.83;;;;;;;21.09;61.74;100691.20;1697439;83;25755;-60
2021/09/17 07:38:08;;;;;;;10.98;5.70;;;;;;;21.10;61.64;100690.16;1686808;83;27507;-60
2021/09/17 07:40:34;;;;;;;17.67;6.90;;;;;;;21.12;61.52;100688.56;1694388;83;26826;-60
2021/09/17 07:43:01;;;;;;;18.77;6.78;;;;;;;21.04;61.74;100682.79;1705627;83;25771;-60
2021/09/17 07:45:29;;;;;;;17.90;6.10;;;;;;;21.02;61.80;100685.42;1705347;83;26531;-60
2021/09/17 07:47:55;;;;;;;16.67;5.53;;;;;;;21.04;61.88;100677.33;1714202;83;25746;-60
2021/09/17 07:50:24;;;;;;;16.10;5.55;;;;;;;21.09;61.85;100665.76;1722977;83;27594;-60
2021/09/17 07:52:51;;;;;;;17.32;5.60;;;;;;;21.22;61.97;100673.13;1696185;82;25853;-60
2021/09/17 07:55:18;;;;;;;10.53;5.15;;;;;;;21.40;61.86;100668.39;1716416;83;26009;-60
2021/09/17 07:57:45;;;;;;;14.15;5.15;;;;;;;21.65;61.59;100675.47;1694082;83;25808;-60
2021/09/17 08:00:18;;;;;;;21.50;6.05;;;;;;;21.86;61.16;100680.40;1717821;82;25856;-60
2021/09/17 08:02:45;;;;;;;23.07;6.83;;;;;;;22.07;60.31;100679.80;1673189;83;28184;-60
2021/09/17 08:05:14;;;;;;;30.55;6.03;;;;;;;22.18;60.02;100667.68;1703224;83;26202;-60
2021/09/17 08:07:41;;;;;;;22.73;5.72;;;;;;;22.30;59.45;100662.88;1711563;83;25706;-60
2021/09/17 08:10:10;;;;;;;12.25;5.87;;;;;;;22.40;59.11;100658.35;1713072;83;25800;-61
2021/09/17 08:12:36;;;;;;;24.05;5.40;;;;;;;22.49;59.25;100663.35;1712254;83;25775;-62
2021/09/17 08:15:05;;;;;;;21.12;6.15;;;;;;;22.64;58.91;100654.84;1712845;83;27513;-62
2021/09/17 08:17:32;;;;;;;15.78;5.58;;;;;;;22.73;58.21;100647.19;1706659;83;25799;-61
2021/09/17 08:19:59;;;;;;;17.30;6.12;;;;;;;22.86;58.04;100642.15;1716740;83;25791;-62
2021/09/17 08:22:26;;;;;;;15.70;5.80;;;;;;;22.97;57.69;100646.94;1676659;83;25962;-62
2021/09/17 08:24:53;;;;;;;17.37;5.83;;;;;;;23.07;57.26;100642.86;1677108;83;25753;-62
2021/09/17 08:27:20;;;;;;;18.80;6.55;;;;;;;23.18;56.62;100649.04;1699284;83;27493;-62
2021/09/17 08:29:47;;;;;;;16.17;5.00;;;;;;;23.25;56.77;100647.62;1691693;83;26604;-62
2021/09/17 08:32:14;;;;;;;13.53;5.95;;;;;;;23.39;56.81;100643.69;1687263;83;25750;-62
2021/09/17 08:34:42;;;;;;;12.55;6.53;;;;;;;23.48;55.70;100647.00;1697063;83;25748;-62
2021/09/17 08:37:09;;;;;;;27.30;7.10;;;;;;;23.50;56.07;100646.22;1700636;83;25826;-63
2021/09/17 08:39:38;;;;;;;15.60;6.37;;;;;;;23.56;56.20;100641.73;1681581;83;27426;-62
2021/09/17 08:42:08;;;;;;;14.70;6.30;;;;;;;23.65;55.50;100638.18;1691048;83;25716;-62
2021/09/17 08:44:37;;;;;;;23.83;6.60;;;;;;;23.73;55.55;100642.83;1690234;83;25736;-63
2021/09/17 08:47:06;;;;;;;17.20;6.17;;;;;;;23.81;55.17;100639.47;1692684;83;25836;-62
2021/09/17 08:49:35;;;;;;;11.50;5.33;;;;;;;23.83;54.97;100633.23;1692461;84;25851;-63
2021/09/17 08:52:04;;;;;;;12.75;5.55;;;;;;;23.86;54.75;100634.98;1704634;83;28206;-62
2021/09/17 08:54:32;;;;;;;20.23;5.67;;;;;;;23.87;54.83;100631.72;1699291;83;25860;-62
2021/09/17 08:56:59;;;;;;;19.82;5.33;;;;;;;23.96;54.62;100641.88;1678562;85;25778;-63
2021/09/17 08:59:25;;;;;;;16.45;5.87;;;;;;;24.05;54.42;100641.89;1709102;83;25805;-62
2021/09/17 09:01:52;;;;;;;19.60;6.42;;;;;;;24.14;53.97;100646.55;1710540;83;25728;-63
2021/09/17 09:04:31;;;;;;;16.57;4.92;;;;;;;24.19;53.04;100651.67;1701460;83;27371;-63
2021/09/17 09:07:05;;;;;;;16.00;5.67;;;;;;;24.21;51.18;100648.68;1701288;83;26599;-63
2021/09/17 09:09:32;;;;;;;13.80;5.40;;;;;;;24.21;51.24;100645.38;1713721;83;25905;-64
2021/09/17 09:11:59;;;;;;;12.63;5.03;;;;;;;24.20;51.24;100643.73;1727452;83;27937;-63
2021/09/17 09:14:26;;;;;;;17.77;6.90;;;;;;;24.19;51.09;100638.45;1726695;83;25834;-62
2021/09/17 09:16:56;;;;;;;16.17;5.33;;;;;;;24.15;50.94;100630.37;1690646;83;28186;-64
2021/09/17 09:19:34;;;;;;;18.02;5.30;;;;;;;24.10;51.31;100634.33;1698491;83;26570;-62
2021/09/17 09:22:11;;;;;;;20.35;6.10;;;;;;;24.03;51.75;100627.53;1678629;85;25805;-63
2021/09/17 09:24:42;;;;;;;25.10;6.97;;;;;;;23.94;51.97;100624.27;1678956;83;25858;-61
2021/09/17 09:27:19;;;;;;;12.23;6.30;;;;;;;23.86;51.62;100622.62;1681158;83;25752;-62
2021/09/17 09:29:52;;;;;;;20.20;7.00;;;;;;;23.76;52.08;100614.06;1678979;83;28148;-63
2021/09/17 09:32:32;;;;;;;11.48;5.97;;;;;;;23.69;52.20;100605.92;1678759;85;25772;-63
2021/09/17 09:35:09;;;;;;;22.85;6.50;;;;;;;23.65;52.53;100614.30;1679285;83;25976;-62
2021/09/17 09:37:39;;;;;;;21.68;7.87;;;;;;;23.62;52.93;100604.30;1713677;83;26413;-63
2021/09/17 09:40:17;;;;;;;22.58;7.10;;;;;;;23.60;53.55;100599.05;1725333;82;25795;-63
2021/09/17 09:42:48;;;;;;;19.73;6.62;;;;;;;23.54;53.97;100603.53;1716354;83;27677;-63
2021/09/17 09:45:24;;;;;;;24.70;6.58;;;;;;;23.53;54.45;100601.03;1705820;83;25873;-61
2021/09/17 09:47:56;;;;;;;19.05;6.35;;;;;;;23.48;54.28;100592.61;1715496;83;25838;-60
2021/09/17 09:50:29;;;;;;;19.50;6.50;;;;;;;23.45;54.40;100590.62;1704998;83;25835;-60
2021/09/17 09:53:00;;;;;;;19.75;7.03;;;;;;;23.49;54.32;100584.14;1682167;83;25846;-62
2021/09/17 09:55:29;;;;;;;13.00;6.33;;;;;;;23.52;54.94;100580.95;1679906;83;27483;-63
2021/09/17 09:57:57;;;;;;;20.92;7.83;;;;;;;23.55;55.33;100576.91;1705390;83;25873;-63
2021/09/17 10:00:24;;;;;;;30.02;7.15;;;;;;;23.64;55.98;100565.92;1711291;83;25882;-64
2021/09/17 10:02:52;;;;;;;15.83;7.20;;;;;;;23.74;55.75;100567.61;1718988;83;25724;-63
2021/09/17 10:05:25;;;;;;;17.60;6.70;;;;;;;23.84;55.58;100573.11;1690806;83;25800;-63
2021/09/17 10:07:48;;;;;;;16.97;6.35;;;;;;;23.86;55.33;100584.16;1686903;82;27438;-63
2021/09/17 10:10:15;;;;;;;26.75;7.35;;;;;;;23.86;55.31;100575.09;1654447;85;26364;-64
2021/09/17 10:12:44;;;;;;;18.48;7.08;;;;;;;23.96;54.93;100576.80;1683996;85;25808;-62
2021/09/17 10:15:14;;;;;;;16.70;5.47;;;;;;;24.11;55.26;100568.17;1683790;85;25819;-62
2021/09/17 10:17:45;;;;;;;9.85;5.25;;;;;;;24.45;54.89;100575.94;1676942;83;25817;-63
2021/09/17 10:20:12;;;;;;;13.70;5.67;;;;;;;25.03;54.43;100567.55;1674087;85;27576;-61
2021/09/17 10:22:45;;;;;;;14.45;5.17;;;;;;;25.74;53.04;100560.66;1674324;85;25761;-62
2021/09/17 10:25:17;;;;;;;12.82;5.45;;;;;;;26.31;52.35;100558.27;1674452;85;25778;-63
2021/09/17 10:28:04;;;;;;;15.18;5.62;;;;;;;26.64;51.30;100559.40;1657155;83;25770;-62
2021/09/17 10:30:34;;;;;;;13.28;5.87;;;;;;;26.65;50.71;100551.42;1651326;84;25860;-63
2021/09/17 10:33:02;;;;;;;19.02;5.90;;;;;;;26.81;49.85;100549.25;1697225;83;27501;-62
2021/09/17 10:35:42;;;;;;;21.30;5.85;;;;;;;26.90;49.75;100541.92;1718409;83;25826;-62
2021/09/17 10:38:27;;;;;;;17.55;5.50;;;;;;;26.96;49.99;100539.53;1707475;82;26248;-62
2021/09/17 10:41:05;;;;;;;18.25;5.53;;;;;;;27.05;49.13;100539.41;1685743;83;25827;-63
2021/09/17 10:43:43;;;;;;;14.70;4.67;;;;;;;26.95;47.17;100545.61;1678072;85;26135;-63
2021/09/17 10:46:28;;;;;;;11.40;5.33;;;;;;;26.81;47.48;100548.39;1685728;83;28233;-63
2021/09/17 10:48:57;;;;;;;16.82;5.28;;;;;;;26.81;47.41;100547.87;1711560;82;26203;-63
2021/09/17 10:51:41;;;;;;;10.63;5.35;;;;;;;26.76;46.71;100544.97;1719636;82;25796;-63
2021/09/17 10:54:12;;;;;;;;;;;;;;;26.72;46.55;100538.30;1722819;82;25883;-62
2021/09/17 10:56:53;;;;;;;18.85;5.35;;;;;;;26.62;47.29;100536.21;1706571;83;26474;-63
2021/09/17 10:59:25;;;;;;;17.65;5.25;;;;;;;26.53;47.28;100537.15;1708524;83;28220;-62
2021/09/17 11:02:00;;;;;;;17.57;5.97;;;;;;;26.30;46.82;100527.08;1723437;83;26027;-63
2021/09/17 11:04:34;;;;;;;15.05;5.72;;;;;;;26.07;47.67;100523.33;1700480;83;25892;-62
2021/09/17 11:07:24;;;;;;;14.00;5.92;;;;;;;25.93;48.34;100530.19;1684613;82;25840;-62
2021/09/17 11:09:56;;;;;;;13.90;6.62;;;;;;;25.86;48.71;100525.37;1675711;85;25949;-62
2021/09/17 11:12:38;;;;;;;12.63;6.40;;;;;;;25.90;48.89;100532.08;1676093;85;27521;-62
2021/09/17 11:15:18;;;;;;;11.70;6.35;;;;;;;25.89;48.31;100527.64;1694743;82;26491;-62
2021/09/17 11:17:56;;;;;;;19.20;5.85;;;;;;;25.73;48.25;100519.04;1733446;82;25826;-62
2021/09/17 11:20:27;;;;;;;21.30;6.72;;;;;;;25.68;48.33;100526.39;1733390;82;26566;-62
2021/09/17 11:23:07;;;;;;;22.75;6.97;;;;;;;25.51;48.51;100518.02;1733662;82;26304;-62